CheckWX is a tool to help pilots better visualize weather data.  It is not intended as a substitute for an official pre-flight weather briefing.

14:36:22 UTC

EDJA METAR
Memmingen Allgau Airport
Memmingen, Germany
Current

46 mins ago

EDJA 221350Z 06012KT CAVOK 21/03 Q1005
Observed
Apr-22 @ 13:50 UTC
Wind
  • 060° at 12 KTS
Visibility
10,000+ meters
Flight Rules
VFR
Cloud Levels
  • Clear skies
Temperature
21°C / 70°F
Dewpoint
C / 37°F
Humidity
31%
Altimeter
29.68" Hg
Pressure
1004.92 hPa
Previous

1 hour ago

EDJA 221320Z 05014KT CAVOK 20/03 Q1006
Observed
Apr-22 @ 13:20 UTC
Wind
  • 050° at 14 KTS
Visibility
10,000+ meters
Flight Rules
VFR
Cloud Levels
  • Clear skies
Temperature
20°C / 68°F
Dewpoint
C / 37°F
Humidity
33%
Altimeter
29.7" Hg
Pressure
1005.92 hPa
Previous

2 hours ago

EDJA 221250Z 05013KT CAVOK 20/05 Q1006
Observed
Apr-22 @ 12:50 UTC
Wind
  • 050° at 13 KTS
Visibility
10,000+ meters
Flight Rules
VFR
Cloud Levels
  • Clear skies
Temperature
20°C / 68°F
Dewpoint
C / 41°F
Humidity
38%
Altimeter
29.7" Hg
Pressure
1005.92 hPa